This is the latest recevied weather packets stored in our database for station/object LKCS. If no packets are shown the sender has not sent any weather packets the latest 10 day(s).
| Time | Temp. | Humidity | Pressure | Rain* | Wind** | Luminosity | Snow |
|---|---|---|---|---|---|---|---|
| 1787414560 | 18.89° C | 52% | 1019 hPa | - | - | - | - |
| 1787412785 | 21.11° C | 46% | 1018 hPa | - | - | - | - |
| 1787410994 | 21.11° C | 43% | 1018 hPa | - | - | - | - |
| 1787409917 | 20° C | 45% | 1018 hPa | - | - | - | - |
| 1787409165 | 20° C | 49% | 1018 hPa | - | - | - | - |
| 1787408291 | 20° C | 52% | 1018 hPa | - | - | - | - |
| 1787407360 | 20° C | 52% | 1018 hPa | - | - | - | - |
| 1787406064 | 17.78° C | 55% | 1018 hPa | - | - | - | - |
| 1787405565 | 17.78° C | 63% | 1018 hPa | - | - | - | - |
| 1787403795 | 17.22° C | 72% | 1018 hPa | - | - | - | - |
| 1787402585 | 17.22° C | 67% | 1018 hPa | - | - | - | - |
| 1787401979 | 20° C | 52% | 1017 hPa | - | - | - | - |
| 1787400192 | 21.11° C | 49% | 1017 hPa | - | - | - | - |
| 1787398371 | 20° C | 56% | 1017 hPa | - | - | - | - |
| 1787396555 | 18.89° C | 63% | 1017 hPa | - | - | - | - |
| 1787394784 | 18.89° C | 55% | 1017 hPa | - | - | - | - |
| 1787392994 | 18.89° C | 55% | 1017 hPa | - | - | - | - |
| 1787391164 | 20° C | 56% | 1016 hPa | - | - | - | - |
| 1787390165 | 18.89° C | 59% | 1016 hPa | - | - | - | - |
| 1787389395 | 18.89° C | 59% | 1016 hPa | - | - | - | - |
| 1787387585 | 17.78° C | 63% | 1016 hPa | - | - | - | - |
| 1787385800 | 17.78° C | 67% | 1016 hPa | - | - | - | - |
| 1787383985 | 17.22° C | 67% | 1015 hPa | - | - | - | - |
| 1787382165 | 17.78° C | 67% | 1015 hPa | - | - | - | - |
| 1787380384 | 16.11° C | 77% | 1015 hPa | - | - | - | - |
* Rain since midnight (hover to see other rain measurements)
** Current wind speed in m/s (hover to see current wind gust speed)